sensor_id;sensor_type;location;lat;lon;timestamp;P1;durP1;ratioP1;P2;durP2;ratioP2
15082;SDS011;7640;53.116;6.878;2023-01-28T00:01:39;12.10;;;10.03;;
15082;SDS011;7640;53.116;6.878;2023-01-28T00:04:08;12.23;;;9.37;;
15082;SDS011;7640;53.116;6.878;2023-01-28T00:06:37;12.53;;;9.97;;
15082;SDS011;7640;53.116;6.878;2023-01-28T00:09:06;12.20;;;9.87;;
15082;SDS011;7640;53.116;6.878;2023-01-28T00:11:36;10.90;;;9.60;;
15082;SDS011;7640;53.116;6.878;2023-01-28T00:14:05;14.13;;;9.67;;
15082;SDS011;7640;53.116;6.878;2023-01-28T00:16:34;11.67;;;9.47;;
15082;SDS011;7640;53.116;6.878;2023-01-28T00:19:02;12.17;;;9.33;;
15082;SDS011;7640;53.116;6.878;2023-01-28T00:21:31;13.93;;;9.97;;
15082;SDS011;7640;53.116;6.878;2023-01-28T00:24:00;12.77;;;10.20;;
15082;SDS011;7640;53.116;6.878;2023-01-28T00:26:28;12.90;;;9.57;;
15082;SDS011;7640;53.116;6.878;2023-01-28T00:28:58;13.83;;;9.53;;
15082;SDS011;7640;53.116;6.878;2023-01-28T00:31:27;12.13;;;9.93;;
15082;SDS011;7640;53.116;6.878;2023-01-28T00:33:56;14.07;;;10.53;;
15082;SDS011;7640;53.116;6.878;2023-01-28T00:36:25;15.00;;;10.07;;
15082;SDS011;7640;53.116;6.878;2023-01-28T00:38:54;13.57;;;10.03;;
15082;SDS011;7640;53.116;6.878;2023-01-28T00:41:26;14.00;;;9.30;;
15082;SDS011;7640;53.116;6.878;2023-01-28T00:43:56;15.63;;;10.77;;
15082;SDS011;7640;53.116;6.878;2023-01-28T00:46:27;16.27;;;11.47;;
15082;SDS011;7640;53.116;6.878;2023-01-28T00:48:56;17.57;;;12.10;;
15082;SDS011;7640;53.116;6.878;2023-01-28T00:51:24;15.93;;;11.60;;
15082;SDS011;7640;53.116;6.878;2023-01-28T00:53:53;16.87;;;11.33;;
15082;SDS011;7640;53.116;6.878;2023-01-28T00:56:22;16.53;;;11.73;;
15082;SDS011;7640;53.116;6.878;2023-01-28T00:58:50;16.73;;;11.47;;
15082;SDS011;7640;53.116;6.878;2023-01-28T01:01:21;17.40;;;12.03;;
15082;SDS011;7640;53.116;6.878;2023-01-28T01:03:53;17.20;;;11.93;;
15082;SDS011;7640;53.116;6.878;2023-01-28T01:06:29;17.03;;;11.67;;
15082;SDS011;7640;53.116;6.878;2023-01-28T01:09:00;18.43;;;11.70;;
15082;SDS011;7640;53.116;6.878;2023-01-28T01:11:33;16.27;;;11.63;;
15082;SDS011;7640;53.116;6.878;2023-01-28T01:14:02;18.20;;;12.07;;
15082;SDS011;7640;53.116;6.878;2023-01-28T01:16:34;16.73;;;11.60;;
15082;SDS011;7640;53.116;6.878;2023-01-28T01:19:04;16.60;;;12.07;;
15082;SDS011;7640;53.116;6.878;2023-01-28T01:21:34;16.40;;;11.43;;
15082;SDS011;7640;53.116;6.878;2023-01-28T01:24:03;15.97;;;11.70;;
15082;SDS011;7640;53.116;6.878;2023-01-28T01:26:33;15.43;;;10.37;;
15082;SDS011;7640;53.116;6.878;2023-01-28T01:29:02;14.63;;;10.30;;
15082;SDS011;7640;53.116;6.878;2023-01-28T01:31:31;14.20;;;10.10;;
15082;SDS011;7640;53.116;6.878;2023-01-28T01:34:02;15.23;;;10.53;;
15082;SDS011;7640;53.116;6.878;2023-01-28T01:36:31;15.27;;;11.63;;
15082;SDS011;7640;53.116;6.878;2023-01-28T01:38:59;15.00;;;10.43;;
15082;SDS011;7640;53.116;6.878;2023-01-28T01:41:29;15.20;;;10.47;;
15082;SDS011;7640;53.116;6.878;2023-01-28T01:44:00;11.60;;;9.03;;
15082;SDS011;7640;53.116;6.878;2023-01-28T01:46:33;15.03;;;10.03;;
15082;SDS011;7640;53.116;6.878;2023-01-28T01:49:11;13.97;;;9.33;;
15082;SDS011;7640;53.116;6.878;2023-01-28T01:51:45;12.17;;;8.90;;
15082;SDS011;7640;53.116;6.878;2023-01-28T01:54:19;14.63;;;9.73;;
15082;SDS011;7640;53.116;6.878;2023-01-28T01:56:51;12.00;;;9.20;;
15082;SDS011;7640;53.116;6.878;2023-01-28T01:59:21;14.27;;;9.53;;
15082;SDS011;7640;53.116;6.878;2023-01-28T02:01:56;12.87;;;8.63;;
15082;SDS011;7640;53.116;6.878;2023-01-28T02:04:28;12.57;;;9.57;;
15082;SDS011;7640;53.116;6.878;2023-01-28T02:07:01;11.80;;;8.80;;
15082;SDS011;7640;53.116;6.878;2023-01-28T02:09:30;10.27;;;8.03;;
15082;SDS011;7640;53.116;6.878;2023-01-28T02:12:04;11.27;;;8.17;;
15082;SDS011;7640;53.116;6.878;2023-01-28T02:14:37;9.97;;;7.63;;
15082;SDS011;7640;53.116;6.878;2023-01-28T02:17:11;10.43;;;7.93;;
15082;SDS011;7640;53.116;6.878;2023-01-28T02:19:42;9.40;;;7.57;;
15082;SDS011;7640;53.116;6.878;2023-01-28T02:22:26;9.97;;;7.47;;
15082;SDS011;7640;53.116;6.878;2023-01-28T02:25:32;9.77;;;7.17;;
15082;SDS011;7640;53.116;6.878;2023-01-28T02:28:32;9.57;;;6.87;;
15082;SDS011;7640;53.116;6.878;2023-01-28T02:31:08;9.03;;;7.10;;
15082;SDS011;7640;53.116;6.878;2023-01-28T02:33:43;10.40;;;7.73;;
15082;SDS011;7640;53.116;6.878;2023-01-28T02:36:23;9.70;;;7.27;;
15082;SDS011;7640;53.116;6.878;2023-01-28T02:38:57;10.77;;;7.77;;
15082;SDS011;7640;53.116;6.878;2023-01-28T02:41:34;10.73;;;7.90;;
15082;SDS011;7640;53.116;6.878;2023-01-28T02:44:08;11.47;;;7.27;;
15082;SDS011;7640;53.116;6.878;2023-01-28T02:46:37;10.10;;;7.20;;
15082;SDS011;7640;53.116;6.878;2023-01-28T02:49:24;10.43;;;7.33;;
15082;SDS011;7640;53.116;6.878;2023-01-28T02:52:05;11.07;;;7.77;;
15082;SDS011;7640;53.116;6.878;2023-01-28T02:54:48;10.07;;;7.60;;
15082;SDS011;7640;53.116;6.878;2023-01-28T02:57:28;10.97;;;7.77;;
15082;SDS011;7640;53.116;6.878;2023-01-28T03:00:07;9.07;;;7.13;;
15082;SDS011;7640;53.116;6.878;2023-01-28T03:02:43;9.60;;;6.93;;
15082;SDS011;7640;53.116;6.878;2023-01-28T03:05:21;9.67;;;6.57;;
15082;SDS011;7640;53.116;6.878;2023-01-28T03:07:53;9.53;;;6.87;;
15082;SDS011;7640;53.116;6.878;2023-01-28T03:10:23;10.07;;;7.03;;
15082;SDS011;7640;53.116;6.878;2023-01-28T03:12:53;10.57;;;6.70;;
15082;SDS011;7640;53.116;6.878;2023-01-28T03:15:43;8.23;;;6.57;;
15082;SDS011;7640;53.116;6.878;2023-01-28T03:18:34;8.37;;;6.73;;
15082;SDS011;7640;53.116;6.878;2023-01-28T03:21:28;9.83;;;6.77;;
15082;SDS011;7640;53.116;6.878;2023-01-28T03:24:19;8.63;;;7.00;;
15082;SDS011;7640;53.116;6.878;2023-01-28T03:27:10;11.60;;;7.63;;
15082;SDS011;7640;53.116;6.878;2023-01-28T03:30:04;9.37;;;6.70;;
15082;SDS011;7640;53.116;6.878;2023-01-28T03:32:58;8.63;;;6.67;;
15082;SDS011;7640;53.116;6.878;2023-01-28T03:35:44;9.80;;;7.50;;
15082;SDS011;7640;53.116;6.878;2023-01-28T03:38:33;11.10;;;7.27;;
15082;SDS011;7640;53.116;6.878;2023-01-28T03:41:07;9.37;;;6.77;;
15082;SDS011;7640;53.116;6.878;2023-01-28T03:43:37;7.73;;;6.60;;
15082;SDS011;7640;53.116;6.878;2023-01-28T03:46:06;10.17;;;6.63;;
15082;SDS011;7640;53.116;6.878;2023-01-28T03:48:36;8.90;;;7.33;;
15082;SDS011;7640;53.116;6.878;2023-01-28T03:51:04;9.40;;;7.10;;
15082;SDS011;7640;53.116;6.878;2023-01-28T03:53:33;10.33;;;6.67;;
15082;SDS011;7640;53.116;6.878;2023-01-28T03:56:02;8.97;;;6.53;;
15082;SDS011;7640;53.116;6.878;2023-01-28T03:58:30;11.23;;;6.33;;
15082;SDS011;7640;53.116;6.878;2023-01-28T04:01:18;8.40;;;5.97;;
15082;SDS011;7640;53.116;6.878;2023-01-28T04:03:48;10.20;;;6.40;;
15082;SDS011;7640;53.116;6.878;2023-01-28T04:06:17;7.93;;;6.27;;
15082;SDS011;7640;53.116;6.878;2023-01-28T04:08:45;8.73;;;6.20;;
15082;SDS011;7640;53.116;6.878;2023-01-28T04:11:18;8.80;;;6.40;;
15082;SDS011;7640;53.116;6.878;2023-01-28T04:13:47;12.13;;;6.73;;
15082;SDS011;7640;53.116;6.878;2023-01-28T04:16:16;9.13;;;6.50;;
15082;SDS011;7640;53.116;6.878;2023-01-28T04:18:45;9.03;;;6.20;;
15082;SDS011;7640;53.116;6.878;2023-01-28T04:21:15;8.30;;;6.57;;
15082;SDS011;7640;53.116;6.878;2023-01-28T04:23:44;11.47;;;7.60;;
15082;SDS011;7640;53.116;6.878;2023-01-28T04:26:12;8.70;;;7.07;;
15082;SDS011;7640;53.116;6.878;2023-01-28T04:28:40;9.60;;;7.10;;
15082;SDS011;7640;53.116;6.878;2023-01-28T04:31:09;8.27;;;6.53;;
15082;SDS011;7640;53.116;6.878;2023-01-28T04:33:37;7.73;;;5.90;;
15082;SDS011;7640;53.116;6.878;2023-01-28T04:36:06;8.73;;;6.83;;
15082;SDS011;7640;53.116;6.878;2023-01-28T04:38:36;8.83;;;6.33;;
15082;SDS011;7640;53.116;6.878;2023-01-28T04:41:04;9.17;;;6.73;;
15082;SDS011;7640;53.116;6.878;2023-01-28T04:43:33;10.97;;;7.50;;
15082;SDS011;7640;53.116;6.878;2023-01-28T04:46:01;8.97;;;7.00;;
15082;SDS011;7640;53.116;6.878;2023-01-28T04:48:29;9.93;;;7.10;;
15082;SDS011;7640;53.116;6.878;2023-01-28T04:50:58;8.53;;;7.07;;
15082;SDS011;7640;53.116;6.878;2023-01-28T04:53:27;8.60;;;6.80;;
15082;SDS011;7640;53.116;6.878;2023-01-28T04:55:57;8.50;;;7.07;;
15082;SDS011;7640;53.116;6.878;2023-01-28T04:58:25;11.33;;;7.63;;
15082;SDS011;7640;53.116;6.878;2023-01-28T05:00:58;9.73;;;7.53;;
15082;SDS011;7640;53.116;6.878;2023-01-28T05:03:33;9.13;;;7.43;;
15082;SDS011;7640;53.116;6.878;2023-01-28T05:06:01;9.43;;;7.13;;
15082;SDS011;7640;53.116;6.878;2023-01-28T05:08:30;8.80;;;6.90;;
15082;SDS011;7640;53.116;6.878;2023-01-28T05:11:00;9.43;;;7.23;;
15082;SDS011;7640;53.116;6.878;2023-01-28T05:13:29;10.37;;;7.87;;
15082;SDS011;7640;53.116;6.878;2023-01-28T05:15:57;9.60;;;7.57;;
15082;SDS011;7640;53.116;6.878;2023-01-28T05:18:25;11.80;;;8.73;;
15082;SDS011;7640;53.116;6.878;2023-01-28T05:20:54;9.73;;;7.83;;
15082;SDS011;7640;53.116;6.878;2023-01-28T05:23:22;10.50;;;8.17;;
15082;SDS011;7640;53.116;6.878;2023-01-28T05:25:51;11.23;;;8.10;;
15082;SDS011;7640;53.116;6.878;2023-01-28T05:28:20;9.53;;;8.23;;
15082;SDS011;7640;53.116;6.878;2023-01-28T05:30:49;10.67;;;8.70;;
15082;SDS011;7640;53.116;6.878;2023-01-28T05:33:17;9.30;;;8.10;;
15082;SDS011;7640;53.116;6.878;2023-01-28T05:35:46;10.83;;;8.50;;
15082;SDS011;7640;53.116;6.878;2023-01-28T05:38:15;12.57;;;8.70;;
15082;SDS011;7640;53.116;6.878;2023-01-28T05:40:43;12.63;;;9.40;;
15082;SDS011;7640;53.116;6.878;2023-01-28T05:43:11;10.47;;;8.53;;
15082;SDS011;7640;53.116;6.878;2023-01-28T05:45:41;10.93;;;8.63;;
15082;SDS011;7640;53.116;6.878;2023-01-28T05:48:10;11.10;;;9.00;;
15082;SDS011;7640;53.116;6.878;2023-01-28T05:50:38;12.60;;;8.83;;
15082;SDS011;7640;53.116;6.878;2023-01-28T05:53:07;10.63;;;8.57;;
15082;SDS011;7640;53.116;6.878;2023-01-28T05:55:36;11.30;;;8.80;;
15082;SDS011;7640;53.116;6.878;2023-01-28T05:58:04;11.60;;;9.63;;
15082;SDS011;7640;53.116;6.878;2023-01-28T06:00:33;12.37;;;8.87;;
15082;SDS011;7640;53.116;6.878;2023-01-28T06:03:02;12.53;;;9.73;;
15082;SDS011;7640;53.116;6.878;2023-01-28T06:05:31;11.33;;;9.00;;
15082;SDS011;7640;53.116;6.878;2023-01-28T06:07:59;13.57;;;10.00;;
15082;SDS011;7640;53.116;6.878;2023-01-28T06:10:28;12.73;;;9.17;;
15082;SDS011;7640;53.116;6.878;2023-01-28T06:12:57;12.67;;;9.50;;
15082;SDS011;7640;53.116;6.878;2023-01-28T06:15:25;12.23;;;9.23;;
15082;SDS011;7640;53.116;6.878;2023-01-28T06:17:54;13.23;;;9.90;;
15082;SDS011;7640;53.116;6.878;2023-01-28T06:20:24;12.00;;;10.37;;
15082;SDS011;7640;53.116;6.878;2023-01-28T06:22:52;11.77;;;9.83;;
15082;SDS011;7640;53.116;6.878;2023-01-28T06:25:20;13.00;;;10.47;;
15082;SDS011;7640;53.116;6.878;2023-01-28T06:27:49;14.47;;;11.10;;
15082;SDS011;7640;53.116;6.878;2023-01-28T06:30:17;14.50;;;11.23;;
15082;SDS011;7640;53.116;6.878;2023-01-28T06:32:46;12.83;;;9.93;;
15082;SDS011;7640;53.116;6.878;2023-01-28T06:35:14;13.60;;;10.73;;
15082;SDS011;7640;53.116;6.878;2023-01-28T06:37:44;15.87;;;10.90;;
15082;SDS011;7640;53.116;6.878;2023-01-28T06:40:12;13.90;;;10.50;;
15082;SDS011;7640;53.116;6.878;2023-01-28T06:42:41;14.23;;;11.27;;
15082;SDS011;7640;53.116;6.878;2023-01-28T06:45:10;14.33;;;11.03;;
15082;SDS011;7640;53.116;6.878;2023-01-28T06:47:38;12.87;;;10.50;;
15082;SDS011;7640;53.116;6.878;2023-01-28T06:50:07;14.70;;;11.03;;
15082;SDS011;7640;53.116;6.878;2023-01-28T06:52:38;13.20;;;10.93;;
15082;SDS011;7640;53.116;6.878;2023-01-28T06:55:08;12.27;;;10.37;;
15082;SDS011;7640;53.116;6.878;2023-01-28T06:57:37;13.13;;;9.87;;
15082;SDS011;7640;53.116;6.878;2023-01-28T07:00:06;12.57;;;10.33;;
15082;SDS011;7640;53.116;6.878;2023-01-28T07:02:39;12.10;;;10.00;;
15082;SDS011;7640;53.116;6.878;2023-01-28T07:05:07;12.63;;;10.23;;
15082;SDS011;7640;53.116;6.878;2023-01-28T07:07:37;13.10;;;10.37;;
15082;SDS011;7640;53.116;6.878;2023-01-28T07:10:09;16.97;;;11.57;;
15082;SDS011;7640;53.116;6.878;2023-01-28T07:12:38;12.90;;;9.80;;
15082;SDS011;7640;53.116;6.878;2023-01-28T07:15:07;12.97;;;10.47;;
15082;SDS011;7640;53.116;6.878;2023-01-28T07:17:38;13.70;;;11.20;;
15082;SDS011;7640;53.116;6.878;2023-01-28T07:20:08;13.70;;;10.73;;
15082;SDS011;7640;53.116;6.878;2023-01-28T07:22:40;14.80;;;10.13;;
15082;SDS011;7640;53.116;6.878;2023-01-28T07:25:12;12.73;;;9.53;;
15082;SDS011;7640;53.116;6.878;2023-01-28T07:27:48;13.23;;;9.83;;
15082;SDS011;7640;53.116;6.878;2023-01-28T07:30:18;12.73;;;9.57;;
15082;SDS011;7640;53.116;6.878;2023-01-28T07:32:52;13.87;;;9.77;;
15082;SDS011;7640;53.116;6.878;2023-01-28T07:35:21;14.07;;;11.03;;
15082;SDS011;7640;53.116;6.878;2023-01-28T07:37:50;16.07;;;11.03;;
15082;SDS011;7640;53.116;6.878;2023-01-28T07:40:20;14.80;;;11.13;;
15082;SDS011;7640;53.116;6.878;2023-01-28T07:42:50;13.90;;;11.23;;
15082;SDS011;7640;53.116;6.878;2023-01-28T07:45:20;14.87;;;10.33;;
15082;SDS011;7640;53.116;6.878;2023-01-28T07:47:53;16.20;;;11.43;;
15082;SDS011;7640;53.116;6.878;2023-01-28T07:50:22;14.63;;;10.70;;
15082;SDS011;7640;53.116;6.878;2023-01-28T07:52:51;15.10;;;10.73;;
15082;SDS011;7640;53.116;6.878;2023-01-28T07:55:21;14.03;;;10.87;;
15082;SDS011;7640;53.116;6.878;2023-01-28T07:57:50;16.30;;;11.97;;
15082;SDS011;7640;53.116;6.878;2023-01-28T08:00:20;16.63;;;11.23;;
15082;SDS011;7640;53.116;6.878;2023-01-28T08:02:53;16.73;;;11.83;;
15082;SDS011;7640;53.116;6.878;2023-01-28T08:05:23;15.57;;;10.97;;
15082;SDS011;7640;53.116;6.878;2023-01-28T08:07:53;16.43;;;11.10;;
15082;SDS011;7640;53.116;6.878;2023-01-28T08:10:23;19.23;;;11.87;;
15082;SDS011;7640;53.116;6.878;2023-01-28T08:12:53;17.43;;;11.50;;
15082;SDS011;7640;53.116;6.878;2023-01-28T08:15:24;15.57;;;10.87;;
15082;SDS011;7640;53.116;6.878;2023-01-28T08:17:52;16.53;;;11.87;;
15082;SDS011;7640;53.116;6.878;2023-01-28T08:20:21;18.20;;;12.07;;
15082;SDS011;7640;53.116;6.878;2023-01-28T08:22:50;16.67;;;10.93;;
15082;SDS011;7640;53.116;6.878;2023-01-28T08:25:19;17.20;;;11.87;;
15082;SDS011;7640;53.116;6.878;2023-01-28T08:27:48;19.77;;;12.20;;
15082;SDS011;7640;53.116;6.878;2023-01-28T08:30:17;17.13;;;12.00;;
15082;SDS011;7640;53.116;6.878;2023-01-28T08:32:46;21.07;;;12.37;;
15082;SDS011;7640;53.116;6.878;2023-01-28T08:35:14;17.43;;;12.40;;
15082;SDS011;7640;53.116;6.878;2023-01-28T08:37:43;17.07;;;11.97;;
15082;SDS011;7640;53.116;6.878;2023-01-28T08:40:11;15.73;;;11.77;;
15082;SDS011;7640;53.116;6.878;2023-01-28T08:42:45;16.47;;;11.33;;
15082;SDS011;7640;53.116;6.878;2023-01-28T08:45:16;16.07;;;11.10;;
15082;SDS011;7640;53.116;6.878;2023-01-28T08:47:48;20.53;;;11.97;;
15082;SDS011;7640;53.116;6.878;2023-01-28T08:50:17;19.27;;;12.43;;
15082;SDS011;7640;53.116;6.878;2023-01-28T08:52:47;17.83;;;12.27;;
15082;SDS011;7640;53.116;6.878;2023-01-28T08:55:21;18.50;;;12.40;;
15082;SDS011;7640;53.116;6.878;2023-01-28T08:57:50;16.73;;;11.40;;
15082;SDS011;7640;53.116;6.878;2023-01-28T09:00:20;18.50;;;12.53;;
15082;SDS011;7640;53.116;6.878;2023-01-28T09:02:50;17.93;;;12.00;;
15082;SDS011;7640;53.116;6.878;2023-01-28T09:05:19;17.90;;;10.90;;
15082;SDS011;7640;53.116;6.878;2023-01-28T09:07:49;18.67;;;11.57;;
15082;SDS011;7640;53.116;6.878;2023-01-28T09:10:17;18.60;;;11.23;;
15082;SDS011;7640;53.116;6.878;2023-01-28T09:12:47;16.27;;;10.90;;
15082;SDS011;7640;53.116;6.878;2023-01-28T09:15:15;18.63;;;11.67;;
15082;SDS011;7640;53.116;6.878;2023-01-28T09:17:47;18.40;;;11.80;;
15082;SDS011;7640;53.116;6.878;2023-01-28T09:20:23;15.67;;;10.93;;
15082;SDS011;7640;53.116;6.878;2023-01-28T09:22:51;17.97;;;10.33;;
15082;SDS011;7640;53.116;6.878;2023-01-28T09:25:20;17.13;;;9.97;;
15082;SDS011;7640;53.116;6.878;2023-01-28T09:27:49;15.57;;;10.23;;
15082;SDS011;7640;53.116;6.878;2023-01-28T09:30:17;15.53;;;10.40;;
15082;SDS011;7640;53.116;6.878;2023-01-28T09:32:49;14.10;;;9.93;;
15082;SDS011;7640;53.116;6.878;2023-01-28T09:35:18;14.40;;;10.13;;
15082;SDS011;7640;53.116;6.878;2023-01-28T09:37:47;14.07;;;9.50;;
15082;SDS011;7640;53.116;6.878;2023-01-28T09:40:18;13.40;;;9.07;;
15082;SDS011;7640;53.116;6.878;2023-01-28T09:42:56;13.70;;;9.07;;
15082;SDS011;7640;53.116;6.878;2023-01-28T09:45:36;14.43;;;9.37;;
15082;SDS011;7640;53.116;6.878;2023-01-28T09:48:12;14.30;;;9.10;;
15082;SDS011;7640;53.116;6.878;2023-01-28T09:50:47;14.37;;;9.27;;
15082;SDS011;7640;53.116;6.878;2023-01-28T09:53:22;11.87;;;7.50;;
15082;SDS011;7640;53.116;6.878;2023-01-28T09:55:55;13.17;;;8.60;;
15082;SDS011;7640;53.116;6.878;2023-01-28T09:58:28;11.03;;;7.63;;
15082;SDS011;7640;53.116;6.878;2023-01-28T10:00:58;11.30;;;8.17;;
15082;SDS011;7640;53.116;6.878;2023-01-28T10:03:38;11.40;;;7.80;;
15082;SDS011;7640;53.116;6.878;2023-01-28T10:06:19;11.47;;;7.50;;
15082;SDS011;7640;53.116;6.878;2023-01-28T10:12:04;12.70;;;7.73;;
15082;SDS011;7640;53.116;6.878;2023-01-28T10:14:46;11.00;;;7.90;;
15082;SDS011;7640;53.116;6.878;2023-01-28T10:17:28;11.10;;;7.57;;
15082;SDS011;7640;53.116;6.878;2023-01-28T10:20:04;10.00;;;7.00;;
15082;SDS011;7640;53.116;6.878;2023-01-28T10:22:47;9.43;;;6.73;;
15082;SDS011;7640;53.116;6.878;2023-01-28T10:25:21;8.13;;;6.27;;
15082;SDS011;7640;53.116;6.878;2023-01-28T10:27:52;10.10;;;6.87;;
15082;SDS011;7640;53.116;6.878;2023-01-28T10:30:21;8.07;;;6.63;;
15082;SDS011;7640;53.116;6.878;2023-01-28T10:32:53;9.23;;;6.37;;
15082;SDS011;7640;53.116;6.878;2023-01-28T10:35:27;9.20;;;6.53;;
15082;SDS011;7640;53.116;6.878;2023-01-28T10:37:58;9.63;;;6.47;;
15082;SDS011;7640;53.116;6.878;2023-01-28T10:40:31;8.87;;;6.70;;
15082;SDS011;7640;53.116;6.878;2023-01-28T10:43:01;10.83;;;7.67;;
15082;SDS011;7640;53.116;6.878;2023-01-28T10:45:31;9.17;;;6.63;;
15082;SDS011;7640;53.116;6.878;2023-01-28T10:48:06;9.43;;;6.97;;
15082;SDS011;7640;53.116;6.878;2023-01-28T10:50:48;9.50;;;6.80;;
15082;SDS011;7640;53.116;6.878;2023-01-28T10:53:17;9.20;;;6.87;;
15082;SDS011;7640;53.116;6.878;2023-01-28T10:55:47;9.83;;;7.17;;
15082;SDS011;7640;53.116;6.878;2023-01-28T10:58:23;9.43;;;7.33;;
15082;SDS011;7640;53.116;6.878;2023-01-28T11:00:55;10.47;;;7.23;;
15082;SDS011;7640;53.116;6.878;2023-01-28T11:03:27;10.20;;;7.23;;
15082;SDS011;7640;53.116;6.878;2023-01-28T11:05:57;10.20;;;7.40;;
15082;SDS011;7640;53.116;6.878;2023-01-28T11:08:27;10.07;;;7.50;;
15082;SDS011;7640;53.116;6.878;2023-01-28T11:10:56;8.57;;;6.70;;
15082;SDS011;7640;53.116;6.878;2023-01-28T11:13:26;8.70;;;6.57;;
15082;SDS011;7640;53.116;6.878;2023-01-28T11:15:58;8.33;;;6.50;;
15082;SDS011;7640;53.116;6.878;2023-01-28T11:18:31;8.60;;;6.00;;
15082;SDS011;7640;53.116;6.878;2023-01-28T11:21:07;7.87;;;6.23;;
15082;SDS011;7640;53.116;6.878;2023-01-28T11:23:48;11.87;;;6.27;;
15082;SDS011;7640;53.116;6.878;2023-01-28T11:26:24;9.37;;;6.43;;
15082;SDS011;7640;53.116;6.878;2023-01-28T11:28:57;9.13;;;6.63;;
15082;SDS011;7640;53.116;6.878;2023-01-28T11:31:26;6.73;;;5.17;;
15082;SDS011;7640;53.116;6.878;2023-01-28T11:33:55;7.03;;;5.40;;
15082;SDS011;7640;53.116;6.878;2023-01-28T11:36:27;7.77;;;5.60;;
15082;SDS011;7640;53.116;6.878;2023-01-28T11:38:58;6.73;;;5.60;;
15082;SDS011;7640;53.116;6.878;2023-01-28T11:41:31;6.67;;;5.27;;
15082;SDS011;7640;53.116;6.878;2023-01-28T11:44:08;7.63;;;5.50;;
15082;SDS011;7640;53.116;6.878;2023-01-28T11:46:46;9.03;;;5.43;;
15082;SDS011;7640;53.116;6.878;2023-01-28T11:49:36;8.33;;;6.00;;
15082;SDS011;7640;53.116;6.878;2023-01-28T11:52:24;8.17;;;5.50;;
15082;SDS011;7640;53.116;6.878;2023-01-28T11:55:30;10.17;;;5.60;;
15082;SDS011;7640;53.116;6.878;2023-01-28T11:58:17;7.60;;;5.80;;
15082;SDS011;7640;53.116;6.878;2023-01-28T12:00:56;8.30;;;6.37;;
15082;SDS011;7640;53.116;6.878;2023-01-28T12:03:40;8.00;;;6.70;;
15082;SDS011;7640;53.116;6.878;2023-01-28T12:06:35;8.00;;;5.80;;
15082;SDS011;7640;53.116;6.878;2023-01-28T12:09:26;8.73;;;6.17;;
15082;SDS011;7640;53.116;6.878;2023-01-28T12:12:10;9.50;;;6.67;;
15082;SDS011;7640;53.116;6.878;2023-01-28T12:15:15;8.83;;;6.63;;
15082;SDS011;7640;53.116;6.878;2023-01-28T12:18:25;9.07;;;6.23;;
15082;SDS011;7640;53.116;6.878;2023-01-28T12:21:14;8.80;;;6.23;;
15082;SDS011;7640;53.116;6.878;2023-01-28T12:23:56;8.93;;;6.73;;
15082;SDS011;7640;53.116;6.878;2023-01-28T12:26:41;8.20;;;6.27;;
15082;SDS011;7640;53.116;6.878;2023-01-28T12:29:20;8.60;;;6.60;;
15082;SDS011;7640;53.116;6.878;2023-01-28T12:32:03;10.10;;;7.00;;
15082;SDS011;7640;53.116;6.878;2023-01-28T12:34:51;9.67;;;6.93;;
15082;SDS011;7640;53.116;6.878;2023-01-28T12:37:36;9.73;;;6.43;;
15082;SDS011;7640;53.116;6.878;2023-01-28T12:40:36;10.80;;;7.07;;
15082;SDS011;7640;53.116;6.878;2023-01-28T12:43:19;9.43;;;7.20;;
15082;SDS011;7640;53.116;6.878;2023-01-28T12:46:07;8.53;;;6.77;;
15082;SDS011;7640;53.116;6.878;2023-01-28T12:48:45;10.77;;;7.17;;
15082;SDS011;7640;53.116;6.878;2023-01-28T12:51:19;10.40;;;7.80;;
15082;SDS011;7640;53.116;6.878;2023-01-28T12:53:52;10.90;;;7.77;;
15082;SDS011;7640;53.116;6.878;2023-01-28T12:56:28;10.90;;;8.07;;
15082;SDS011;7640;53.116;6.878;2023-01-28T12:59:03;11.10;;;7.87;;
15082;SDS011;7640;53.116;6.878;2023-01-28T13:01:39;12.63;;;7.97;;
15082;SDS011;7640;53.116;6.878;2023-01-28T13:04:15;9.10;;;7.33;;
15082;SDS011;7640;53.116;6.878;2023-01-28T13:06:52;10.07;;;7.37;;
15082;SDS011;7640;53.116;6.878;2023-01-28T13:09:25;8.80;;;6.87;;
15082;SDS011;7640;53.116;6.878;2023-01-28T13:11:56;11.10;;;6.93;;
15082;SDS011;7640;53.116;6.878;2023-01-28T13:14:28;8.73;;;6.20;;
15082;SDS011;7640;53.116;6.878;2023-01-28T13:17:07;8.53;;;5.40;;
15082;SDS011;7640;53.116;6.878;2023-01-28T13:19:38;8.93;;;5.90;;
15082;SDS011;7640;53.116;6.878;2023-01-28T13:22:11;8.97;;;5.73;;
15082;SDS011;7640;53.116;6.878;2023-01-28T13:24:55;10.30;;;6.70;;
15082;SDS011;7640;53.116;6.878;2023-01-28T13:27:25;9.33;;;6.30;;
15082;SDS011;7640;53.116;6.878;2023-01-28T13:30:04;10.50;;;6.80;;
15082;SDS011;7640;53.116;6.878;2023-01-28T13:32:54;9.87;;;6.87;;
15082;SDS011;7640;53.116;6.878;2023-01-28T13:35:34;8.27;;;6.33;;
15082;SDS011;7640;53.116;6.878;2023-01-28T13:38:05;10.00;;;6.70;;
15082;SDS011;7640;53.116;6.878;2023-01-28T13:40:37;8.07;;;6.30;;
15082;SDS011;7640;53.116;6.878;2023-01-28T13:45:56;10.30;;;6.27;;
15082;SDS011;7640;53.116;6.878;2023-01-28T13:48:29;8.70;;;6.63;;
15082;SDS011;7640;53.116;6.878;2023-01-28T13:51:01;7.90;;;6.23;;
15082;SDS011;7640;53.116;6.878;2023-01-28T13:53:35;8.60;;;6.50;;
15082;SDS011;7640;53.116;6.878;2023-01-28T13:56:09;10.03;;;6.50;;
15082;SDS011;7640;53.116;6.878;2023-01-28T13:59:03;9.53;;;6.83;;
15082;SDS011;7640;53.116;6.878;2023-01-28T14:02:09;9.60;;;6.47;;
15082;SDS011;7640;53.116;6.878;2023-01-28T14:08:35;9.23;;;7.00;;
15082;SDS011;7640;53.116;6.878;2023-01-28T14:11:45;10.27;;;7.10;;
15082;SDS011;7640;53.116;6.878;2023-01-28T14:17:56;11.37;;;7.73;;
15082;SDS011;7640;53.116;6.878;2023-01-28T14:20:27;10.93;;;7.33;;
15082;SDS011;7640;53.116;6.878;2023-01-28T14:23:03;11.93;;;7.57;;
15082;SDS011;7640;53.116;6.878;2023-01-28T14:25:35;12.13;;;7.60;;
15082;SDS011;7640;53.116;6.878;2023-01-28T14:28:28;11.07;;;7.80;;
15082;SDS011;7640;53.116;6.878;2023-01-28T14:31:05;11.77;;;8.70;;
15082;SDS011;7640;53.116;6.878;2023-01-28T14:33:40;13.23;;;8.43;;
15082;SDS011;7640;53.116;6.878;2023-01-28T14:36:10;11.43;;;7.67;;
15082;SDS011;7640;53.116;6.878;2023-01-28T14:38:40;12.30;;;8.17;;
15082;SDS011;7640;53.116;6.878;2023-01-28T14:41:14;12.23;;;7.17;;
15082;SDS011;7640;53.116;6.878;2023-01-28T14:43:50;12.57;;;8.40;;
15082;SDS011;7640;53.116;6.878;2023-01-28T14:46:24;11.93;;;7.53;;
15082;SDS011;7640;53.116;6.878;2023-01-28T14:49:11;10.60;;;7.17;;
15082;SDS011;7640;53.116;6.878;2023-01-28T14:52:03;10.57;;;7.60;;
15082;SDS011;7640;53.116;6.878;2023-01-28T14:54:51;13.40;;;7.63;;
15082;SDS011;7640;53.116;6.878;2023-01-28T14:57:36;10.73;;;7.57;;
15082;SDS011;7640;53.116;6.878;2023-01-28T15:00:16;13.47;;;8.00;;
15082;SDS011;7640;53.116;6.878;2023-01-28T15:02:47;15.03;;;8.17;;
15082;SDS011;7640;53.116;6.878;2023-01-28T15:05:18;13.70;;;8.33;;
15082;SDS011;7640;53.116;6.878;2023-01-28T15:07:50;11.10;;;8.13;;
15082;SDS011;7640;53.116;6.878;2023-01-28T15:10:19;20.07;;;8.10;;
15082;SDS011;7640;53.116;6.878;2023-01-28T15:12:52;12.03;;;7.57;;
15082;SDS011;7640;53.116;6.878;2023-01-28T15:15:26;12.03;;;8.33;;
15082;SDS011;7640;53.116;6.878;2023-01-28T15:17:59;12.13;;;7.77;;
15082;SDS011;7640;53.116;6.878;2023-01-28T15:20:32;14.37;;;9.00;;
15082;SDS011;7640;53.116;6.878;2023-01-28T15:23:01;12.77;;;7.97;;
15082;SDS011;7640;53.116;6.878;2023-01-28T15:25:33;13.20;;;7.70;;
15082;SDS011;7640;53.116;6.878;2023-01-28T15:28:02;9.83;;;6.93;;
15082;SDS011;7640;53.116;6.878;2023-01-28T15:30:31;12.20;;;6.73;;
15082;SDS011;7640;53.116;6.878;2023-01-28T15:33:00;10.70;;;7.13;;
15082;SDS011;7640;53.116;6.878;2023-01-28T15:35:34;12.93;;;7.97;;
15082;SDS011;7640;53.116;6.878;2023-01-28T15:38:03;11.77;;;6.77;;
15082;SDS011;7640;53.116;6.878;2023-01-28T15:40:38;10.83;;;6.73;;